createdAt,value
2018-01-28T00:00:02.998Z,2.4
2018-01-28T00:15:02.837Z,2.4
2018-01-28T00:30:03.410Z,2.4
2018-01-28T00:45:03.132Z,2.4
2018-01-28T01:00:02.642Z,2.4
2018-01-28T01:15:02.936Z,2.5
2018-01-28T01:30:03.981Z,2.5
2018-01-28T01:45:02.482Z,2.4
2018-01-28T02:00:03.055Z,2.4
2018-01-28T02:15:03.158Z,2.4
2018-01-28T02:30:02.573Z,2.4
2018-01-28T02:45:02.827Z,2.4
2018-01-28T03:00:03.096Z,2.4
2018-01-28T03:15:02.403Z,2.5
2018-01-28T03:30:06.625Z,2.4
2018-01-28T03:45:03.577Z,2.6
2018-01-28T04:00:03.789Z,2.7
2018-01-28T04:15:02.706Z,3.1
2018-01-28T04:30:04.402Z,3.4
2018-01-28T04:45:02.712Z,3.4
2018-01-28T05:00:12.771Z,3.4
2018-01-28T05:15:07.127Z,3.4
2018-01-28T05:30:06.112Z,3.2
2018-01-28T05:45:07.728Z,3.2
2018-01-28T06:00:06.627Z,3.2
2018-01-28T06:15:03.873Z,3.4
2018-01-28T06:30:02.279Z,3.4
2018-01-28T06:45:03.401Z,3.6
2018-01-28T07:00:07.708Z,3.8
2018-01-28T07:15:03.550Z,3.8
2018-01-28T07:30:03.556Z,4
2018-01-28T07:45:03.275Z,4.1
2018-01-28T08:00:05.012Z,4.2
2018-01-28T08:15:03.120Z,4.4
2018-01-28T08:30:03.997Z,4.6
2018-01-28T08:45:02.971Z,4.8
2018-01-28T09:00:05.175Z,5.1
2018-01-28T09:15:03.310Z,5.6
2018-01-28T09:30:04.297Z,5.8
2018-01-28T09:45:02.706Z,6.1
2018-01-28T10:00:05.330Z,6.6
2018-01-28T10:15:02.655Z,6.7
2018-01-28T10:30:10.693Z,6.9
2018-01-28T10:45:03.457Z,7
2018-01-28T11:00:09.172Z,7.8
2018-01-28T11:15:02.411Z,8.3
2018-01-28T11:30:02.732Z,8.5
2018-01-28T11:45:02.989Z,8.4
2018-01-28T12:00:02.242Z,8.3
2018-01-28T12:15:02.444Z,8
2018-01-28T12:30:02.842Z,8.1
2018-01-28T12:45:03.123Z,8.2
2018-01-28T13:00:02.482Z,8.1
2018-01-28T13:15:02.718Z,8.2
2018-01-28T13:30:03.060Z,8.2
2018-01-28T13:45:02.430Z,8.6
2018-01-28T14:00:02.781Z,9
2018-01-28T14:15:03.000Z,8.9
2018-01-28T14:30:02.422Z,8.9
2018-01-28T14:45:02.664Z,9.1
2018-01-28T15:00:03.835Z,8.9
2018-01-28T15:15:02.345Z,8.8
2018-01-28T15:30:02.687Z,8.4
2018-01-28T15:45:02.911Z,8
2018-01-28T16:00:03.194Z,7.8
2018-01-28T16:15:02.432Z,7.6
2018-01-28T16:30:02.813Z,7.6
2018-01-28T16:45:04.307Z,7.7
2018-01-28T17:00:02.739Z,7.5
2018-01-28T17:15:03.021Z,7.6
2018-01-28T17:30:02.397Z,7.2
2018-01-28T17:45:02.668Z,7.4
2018-01-28T18:00:03.050Z,7.8
2018-01-28T18:15:02.307Z,8.1
2018-01-28T18:30:02.710Z,8.2
2018-01-28T18:45:02.957Z,8.3
2018-01-28T19:00:02.261Z,8.2
2018-01-28T19:15:02.566Z,8.1
2018-01-28T19:30:02.899Z,7.9
2018-01-28T19:45:03.221Z,7.8
2018-01-28T20:00:02.610Z,7.4
2018-01-28T20:15:02.871Z,7.1
2018-01-28T20:30:03.266Z,6.8
2018-01-28T20:45:02.550Z,6.5
2018-01-28T21:00:03.008Z,5.6
2018-01-28T21:15:02.582Z,5.1
2018-01-28T21:30:03.108Z,4.8
2018-01-28T21:45:02.636Z,4.1
2018-01-28T22:00:02.938Z,4.1
2018-01-28T22:15:03.256Z,3.9
2018-01-28T22:30:02.798Z,3.6
2018-01-28T22:45:03.038Z,3.4
2018-01-28T23:00:02.781Z,3
2018-01-28T23:15:02.902Z,2.8
2018-01-28T23:30:02.563Z,2.6
2018-01-28T23:45:07.114Z,2.4
